createdAt,value
2022-10-08T00:00:38.023Z,11.06
2022-10-08T00:10:38.051Z,10.89
2022-10-08T00:20:38.398Z,10.89
2022-10-08T00:30:38.428Z,10.89
2022-10-08T00:40:38.949Z,10.89
2022-10-08T00:50:38.775Z,10.71
2022-10-08T01:00:39.113Z,10.71
2022-10-08T01:10:39.163Z,9.90
2022-10-08T01:20:39.701Z,11.06
2022-10-08T01:30:39.549Z,10.24
2022-10-08T01:40:39.879Z,10.07
2022-10-08T01:50:39.899Z,9.90
2022-10-08T02:00:40.217Z,10.71
2022-10-08T02:10:40.236Z,10.54
2022-10-08T02:20:40.577Z,10.71
2022-10-08T02:30:40.606Z,10.07
2022-10-08T02:40:40.915Z,9.90
2022-10-08T02:50:40.950Z,10.07
2022-10-08T03:00:41.261Z,10.07
2022-10-08T03:10:41.298Z,9.90
2022-10-08T03:20:41.617Z,9.90
2022-10-08T03:30:41.719Z,9.90
2022-10-08T03:40:41.867Z,9.90
2022-10-08T03:50:41.888Z,9.90
2022-10-08T04:00:42.215Z,9.90
2022-10-08T04:10:42.229Z,10.07
2022-10-08T04:20:42.500Z,9.90
2022-10-08T04:30:42.782Z,9.55
2022-10-08T04:40:42.905Z,9.55
2022-10-08T04:50:42.935Z,9.90
2022-10-08T05:00:43.263Z,9.73
2022-10-08T05:10:43.279Z,9.55
2022-10-08T05:20:43.610Z,9.38
2022-10-08T05:30:43.642Z,9.55
2022-10-08T05:40:43.955Z,9.73
2022-10-08T05:50:43.973Z,9.90
2022-10-08T06:00:44.424Z,9.90
2022-10-08T06:10:44.434Z,9.73
2022-10-08T06:20:44.762Z,9.55
2022-10-08T06:30:44.810Z,9.38
2022-10-08T06:40:45.117Z,9.38
2022-10-08T06:50:45.139Z,9.02
2022-10-08T07:00:45.530Z,9.20
2022-10-08T07:10:45.590Z,9.20
2022-10-08T07:20:45.916Z,9.38
2022-10-08T07:30:45.947Z,10.18
2022-10-08T07:40:46.267Z,10.00
2022-10-08T07:50:46.293Z,10.00
2022-10-08T08:00:46.643Z,10.00
2022-10-08T08:10:46.696Z,9.63
2022-10-08T08:20:47.162Z,9.25
2022-10-08T08:30:47.190Z,9.44
2022-10-08T08:40:47.517Z,9.44
2022-10-08T08:50:48.899Z,10.22
2022-10-08T09:00:47.785Z,9.64
2022-10-08T09:10:47.859Z,9.83
2022-10-08T09:20:48.117Z,10.03
2022-10-08T09:30:48.275Z,10.03
2022-10-08T09:40:48.576Z,10.22
2022-10-08T09:50:48.596Z,10.22
2022-10-08T10:00:48.924Z,10.22
2022-10-08T10:10:48.955Z,9.44
2022-10-08T10:20:49.283Z,10.60
2022-10-08T10:30:49.356Z,10.40
2022-10-08T10:40:49.404Z,10.40
2022-10-08T10:50:49.643Z,10.80
2022-10-08T11:00:49.971Z,10.22
2022-10-08T11:10:49.991Z,12.13
2022-10-08T11:20:50.321Z,11.34
2022-10-08T11:30:50.400Z,11.52
2022-10-08T11:40:50.457Z,12.21
2022-10-08T11:50:50.679Z,12.72
2022-10-08T12:00:51.009Z,13.05
2022-10-08T12:10:51.045Z,13.21
2022-10-08T12:20:54.489Z,13.21
2022-10-08T12:30:51.557Z,13.21
2022-10-08T12:40:51.930Z,13.37
2022-10-08T12:50:51.945Z,14.19
2022-10-08T13:00:52.346Z,13.71
2022-10-08T13:10:52.398Z,12.74
2022-10-08T13:20:52.824Z,12.72
2022-10-08T13:30:52.854Z,13.21
2022-10-08T13:40:53.170Z,13.37
2022-10-08T13:50:53.200Z,13.53
2022-10-08T14:00:53.588Z,13.69
2022-10-08T14:10:53.635Z,13.69
2022-10-08T14:20:54.210Z,13.69
2022-10-08T14:30:54.032Z,13.69
2022-10-08T14:40:54.323Z,13.84
2022-10-08T14:50:54.351Z,13.84
2022-10-08T15:00:54.679Z,13.84
2022-10-08T15:10:54.720Z,13.84
2022-10-08T15:20:55.036Z,13.84
2022-10-08T15:30:55.079Z,13.84
2022-10-08T15:40:55.368Z,13.84
2022-10-08T15:50:55.398Z,13.84
2022-10-08T16:00:55.799Z,13.84
2022-10-08T16:10:58.170Z,13.84
2022-10-08T16:20:56.174Z,13.84
2022-10-08T16:30:56.214Z,13.84
2022-10-08T16:40:56.530Z,13.84
2022-10-08T16:50:56.558Z,13.84
2022-10-08T17:00:57.009Z,13.84
2022-10-08T17:10:56.933Z,13.84
2022-10-08T17:20:57.428Z,13.84
2022-10-08T17:30:57.313Z,13.84
2022-10-08T17:40:57.672Z,13.84
2022-10-08T17:50:57.777Z,13.84
2022-10-08T18:00:57.715Z,13.84
2022-10-08T18:10:57.757Z,13.84
2022-10-08T18:20:58.072Z,12.85
2022-10-08T18:30:58.174Z,12.85
2022-10-08T18:40:58.537Z,12.69
2022-10-08T18:50:58.713Z,12.69
2022-10-08T19:00:58.886Z,12.69
2022-10-08T19:10:58.722Z,12.69
2022-10-08T19:20:59.221Z,12.69
2022-10-08T19:30:59.159Z,12.85
2022-10-08T19:41:00.045Z,12.85
2022-10-08T19:50:59.579Z,12.85
2022-10-08T20:00:59.625Z,12.85
2022-10-08T20:10:59.786Z,12.85
2022-10-08T20:20:59.966Z,12.85
2022-10-08T20:31:00.024Z,12.85
2022-10-08T20:41:00.095Z,12.85
2022-10-08T20:51:00.335Z,12.85
2022-10-08T21:01:00.727Z,12.85
2022-10-08T21:11:00.753Z,12.85
2022-10-08T21:21:01.019Z,12.85
2022-10-08T21:31:04.137Z,12.85
2022-10-08T21:41:01.364Z,12.85
2022-10-08T21:51:01.397Z,12.85
2022-10-08T22:01:01.735Z,12.85
2022-10-08T22:11:01.808Z,12.85
2022-10-08T22:21:02.091Z,11.69
2022-10-08T22:31:02.172Z,11.85
2022-10-08T22:41:02.306Z,11.69
2022-10-08T22:51:02.324Z,11.69
2022-10-08T23:01:02.670Z,11.69
2022-10-08T23:11:02.708Z,11.54
2022-10-08T23:21:03.014Z,11.69
2022-10-08T23:31:03.033Z,11.69
2022-10-08T23:41:03.355Z,11.54
2022-10-08T23:51:03.373Z,11.54
